Zion National Park, Utah
Current Conditions -  °F | °C
As of 2:55 PM on Monday 24 Nov 2014 (Local Time) from KAZC Reporting Station
Clear Clear  
Wind Chill: 11°   Ceiling: Unl
Heat Index: 11°   Visibility: 10mi
Dew Point: -13°   Wind: 17mph
Humidity: 18%   Direction: 330°NNW
Pressure: 30.35"   Gusts: 29mph
Location:  37.1888°N, 113°W
Report Text: KAZC 242155Z AUTO 33015G25KT 10SM CLR 11/M13 A3035 RMK AO2 T01071129
Loading
Personal Weather Stations






























Interactive Weather Map New forecast layout! Learn more

10-Day Weather Forecast

Advertisements
Track Severe Weather on mobile